createdAt,value
2019-01-23T00:01:38.613Z,76.47
2019-01-23T00:04:06.146Z,81.13
2019-01-23T00:06:35.179Z,79.50
2019-01-23T00:09:04.652Z,84.60
2019-01-23T00:11:32.724Z,80.10
2019-01-23T00:14:00.662Z,80.97
2019-01-23T00:16:28.447Z,86.37
2019-01-23T00:18:55.988Z,75.97
2019-01-23T00:21:23.946Z,82.87
2019-01-23T00:23:54.894Z,72.73
2019-01-23T00:26:22.592Z,85.43
2019-01-23T00:28:50.117Z,76.63
2019-01-23T00:31:17.647Z,90.03
2019-01-23T00:33:45.590Z,79.27
2019-01-23T00:36:13.326Z,76.50
2019-01-23T00:38:41.151Z,83.63
2019-01-23T00:41:08.673Z,78.97
2019-01-23T00:43:36.621Z,77.57
2019-01-23T00:46:04.488Z,90.10
2019-01-23T00:48:32.258Z,85.57
2019-01-23T00:51:00.196Z,85.37
2019-01-23T00:53:29.207Z,87.03
2019-01-23T00:55:57.532Z,87.57
2019-01-23T00:58:25.495Z,98.07
2019-01-23T01:00:53.019Z,90.17
2019-01-23T01:03:20.808Z,80.23
2019-01-23T01:05:48.359Z,95.40
2019-01-23T01:08:16.514Z,84.17
2019-01-23T01:10:44.395Z,83.33
2019-01-23T01:13:12.919Z,88.60
2019-01-23T01:15:40.580Z,82.33
2019-01-23T01:18:10.299Z,82.17
2019-01-23T01:20:37.858Z,80.97
2019-01-23T01:23:05.630Z,86.10
2019-01-23T01:25:33.152Z,85.37
2019-01-23T01:28:00.952Z,85.43
2019-01-23T01:30:28.822Z,93.13
2019-01-23T01:32:56.349Z,81.03
2019-01-23T01:35:24.155Z,79.80
2019-01-23T01:37:52.682Z,98.30
2019-01-23T01:40:20.466Z,94.97
2019-01-23T01:42:48.845Z,88.77
2019-01-23T01:45:17.132Z,84.50
2019-01-23T01:47:45.518Z,79.67
2019-01-23T01:50:15.735Z,87.77
2019-01-23T01:52:43.238Z,97.57
2019-01-23T01:55:10.767Z,89.67
2019-01-23T01:57:38.530Z,85.97
2019-01-23T02:00:12.039Z,98.40
2019-01-23T02:02:39.546Z,88.67
2019-01-23T02:05:07.920Z,92.73
2019-01-23T02:07:37.006Z,85.47
2019-01-23T02:10:06.672Z,100.60
2019-01-23T02:12:40.177Z,93.13
2019-01-23T02:15:09.428Z,89.27
2019-01-23T02:17:37.317Z,93.60
2019-01-23T02:20:08.000Z,91.47
2019-01-23T02:22:35.907Z,92.10
2019-01-23T02:25:04.126Z,92.57
2019-01-23T02:27:31.954Z,90.23
2019-01-23T02:29:59.775Z,90.40
2019-01-23T02:32:27.624Z,90.43
2019-01-23T02:34:56.098Z,87.30
2019-01-23T02:37:24.663Z,85.07
2019-01-23T02:39:52.486Z,94.10
2019-01-23T02:42:20.014Z,99.53
2019-01-23T02:44:47.558Z,100.53
2019-01-23T02:47:15.406Z,93.33
2019-01-23T02:49:43.281Z,87.80
2019-01-23T02:52:11.127Z,90.87
2019-01-23T02:54:39.646Z,98.50
2019-01-23T02:57:07.997Z,83.97
2019-01-23T02:59:35.502Z,90.53
2019-01-23T03:02:03.346Z,104.20
2019-01-23T03:04:31.296Z,96.53
2019-01-23T03:06:59.176Z,87.63
2019-01-23T03:09:29.622Z,87.23
2019-01-23T03:11:57.780Z,100.10
2019-01-23T03:14:25.659Z,93.23
2019-01-23T03:16:53.154Z,85.90
2019-01-23T03:19:21.078Z,102.27
2019-01-23T03:21:49.227Z,82.47
2019-01-23T03:24:17.070Z,94.13
2019-01-23T03:26:45.343Z,94.17
2019-01-23T03:29:14.243Z,99.50
2019-01-23T03:31:42.093Z,90.97
2019-01-23T03:34:09.719Z,96.23
2019-01-23T03:36:38.040Z,86.87
2019-01-23T03:39:07.428Z,89.33
2019-01-23T03:41:35.616Z,88.37
2019-01-23T03:44:03.303Z,82.20
2019-01-23T03:46:31.562Z,84.37
2019-01-23T03:48:59.441Z,76.10
2019-01-23T03:51:28.058Z,86.40
2019-01-23T03:53:55.577Z,82.00
2019-01-23T03:56:23.919Z,71.13
2019-01-23T03:58:51.911Z,78.50
2019-01-23T04:01:19.582Z,88.63
2019-01-23T04:03:47.082Z,90.53
2019-01-23T04:06:15.095Z,87.77
2019-01-23T04:08:42.854Z,83.90
2019-01-23T04:11:10.790Z,80.03
2019-01-23T04:13:38.768Z,80.70
2019-01-23T04:16:06.254Z,97.03
2019-01-23T04:18:34.111Z,86.70
2019-01-23T04:21:02.152Z,77.17
2019-01-23T04:23:29.921Z,86.17
2019-01-23T04:25:57.733Z,90.17
2019-01-23T04:28:26.577Z,82.30
2019-01-23T04:30:54.831Z,78.23
2019-01-23T04:33:22.675Z,74.23
2019-01-23T04:35:50.672Z,79.27
2019-01-23T04:38:18.998Z,81.30
2019-01-23T04:40:48.157Z,79.40
2019-01-23T04:43:15.683Z,84.37
2019-01-23T04:45:43.330Z,82.17
2019-01-23T04:48:11.231Z,66.17
2019-01-23T04:51:13.313Z,87.70
2019-01-23T04:53:42.559Z,74.27
2019-01-23T04:56:10.471Z,81.10
2019-01-23T04:58:38.551Z,79.20
2019-01-23T05:01:06.391Z,88.20
2019-01-23T05:03:34.182Z,84.43
2019-01-23T05:06:01.776Z,85.37
2019-01-23T05:08:29.732Z,88.17
2019-01-23T05:10:57.839Z,86.17
2019-01-23T05:13:25.774Z,85.77
2019-01-23T05:15:53.811Z,79.33
2019-01-23T05:18:22.380Z,87.07
2019-01-23T05:20:50.504Z,78.57
2019-01-23T05:23:18.587Z,84.97
2019-01-23T05:25:46.547Z,71.70
2019-01-23T05:28:15.434Z,84.40
2019-01-23T05:30:43.317Z,81.03
2019-01-23T05:33:11.106Z,85.90
2019-01-23T05:35:39.007Z,75.17
2019-01-23T05:38:14.586Z,91.03
2019-01-23T05:40:42.879Z,81.67
2019-01-23T05:43:10.741Z,84.93
2019-01-23T05:45:47.531Z,83.23
2019-01-23T05:48:15.390Z,81.30
2019-01-23T05:51:02.698Z,73.07
2019-01-23T05:53:30.618Z,80.87
2019-01-23T05:55:59.138Z,78.47
2019-01-23T05:58:26.819Z,79.07
2019-01-23T06:00:54.714Z,82.20
2019-01-23T06:03:22.574Z,85.43
2019-01-23T06:05:50.589Z,82.93
2019-01-23T06:08:18.563Z,95.67
2019-01-23T06:10:46.581Z,93.87
2019-01-23T06:13:14.764Z,86.60
2019-01-23T06:15:42.287Z,85.70
2019-01-23T06:18:12.894Z,88.20
2019-01-23T06:20:40.399Z,93.83
2019-01-23T06:23:08.348Z,77.37
2019-01-23T06:25:35.884Z,85.27
2019-01-23T06:28:03.655Z,82.43
2019-01-23T06:30:31.513Z,94.80
2019-01-23T06:32:59.046Z,80.87
2019-01-23T06:35:26.578Z,89.93
2019-01-23T06:37:54.684Z,81.90
2019-01-23T06:40:22.515Z,92.50
2019-01-23T06:42:50.706Z,86.93
2019-01-23T06:45:26.651Z,93.80
2019-01-23T06:47:54.214Z,94.80
2019-01-23T06:50:26.002Z,100.67
2019-01-23T06:52:53.667Z,83.83
2019-01-23T06:55:21.159Z,88.17
2019-01-23T06:57:49.155Z,103.40
2019-01-23T07:00:24.729Z,89.67
2019-01-23T07:02:52.355Z,89.00
2019-01-23T07:05:20.098Z,86.73
2019-01-23T07:07:47.929Z,92.40
2019-01-23T07:10:19.016Z,85.73
2019-01-23T07:12:46.985Z,85.40
2019-01-23T07:15:14.883Z,83.83
2019-01-23T07:17:42.803Z,79.27
2019-01-23T07:20:13.842Z,86.40
2019-01-23T07:22:42.038Z,85.53
2019-01-23T07:25:09.879Z,79.03
2019-01-23T07:27:37.687Z,79.00
2019-01-23T07:30:09.514Z,81.50
2019-01-23T07:32:37.618Z,81.73
2019-01-23T07:35:08.331Z,68.00
2019-01-23T07:37:36.501Z,82.23
2019-01-23T07:40:05.056Z,78.30
2019-01-23T07:42:32.957Z,85.30
2019-01-23T07:45:00.510Z,83.33
2019-01-23T07:47:28.411Z,75.13
2019-01-23T07:49:56.281Z,79.97
2019-01-23T07:52:24.085Z,80.43
2019-01-23T07:54:52.056Z,76.20
2019-01-23T07:57:19.586Z,75.43
2019-01-23T07:59:47.541Z,76.50
2019-01-23T08:02:15.438Z,81.47
2019-01-23T08:04:43.052Z,74.37
2019-01-23T08:07:10.502Z,77.20
2019-01-23T08:09:38.451Z,77.07
2019-01-23T08:12:10.707Z,84.57
2019-01-23T08:14:35.818Z,80.37
2019-01-23T08:17:03.691Z,81.93
2019-01-23T08:19:31.769Z,87.10
2019-01-23T08:21:59.304Z,90.80
2019-01-23T08:24:27.224Z,80.80
2019-01-23T08:26:56.315Z,79.80
2019-01-23T08:29:24.567Z,74.70
2019-01-23T08:31:52.062Z,86.07
2019-01-23T08:34:19.834Z,91.20
2019-01-23T08:36:47.832Z,90.43
2019-01-23T08:39:15.598Z,88.30
2019-01-23T08:41:43.578Z,83.53
2019-01-23T08:44:11.065Z,73.87
2019-01-23T08:46:39.274Z,87.67
2019-01-23T08:49:07.426Z,89.90
2019-01-23T08:51:34.944Z,81.07
2019-01-23T08:54:02.736Z,78.47
2019-01-23T08:56:30.186Z,90.47
2019-01-23T08:58:59.083Z,84.20
2019-01-23T09:01:26.891Z,88.33
2019-01-23T09:03:54.792Z,89.67
2019-01-23T09:06:22.955Z,93.53
2019-01-23T09:08:50.810Z,95.60
2019-01-23T09:11:19.363Z,91.83
2019-01-23T09:13:47.465Z,96.67
2019-01-23T09:16:15.101Z,80.50
2019-01-23T09:18:42.625Z,97.93
2019-01-23T09:21:10.106Z,94.60
2019-01-23T09:23:38.266Z,90.97
2019-01-23T09:26:05.937Z,94.37
2019-01-23T09:28:34.716Z,91.43
2019-01-23T09:31:29.756Z,92.40
2019-01-23T09:34:18.168Z,88.03
2019-01-23T09:36:55.174Z,91.33
2019-01-23T09:40:07.313Z,92.13
2019-01-23T09:43:11.018Z,84.73
2019-01-23T09:46:14.156Z,88.23
2019-01-23T09:49:29.398Z,83.07
2019-01-23T09:52:31.219Z,88.47
2019-01-23T09:54:59.151Z,71.50
2019-01-23T09:57:26.716Z,83.00
2019-01-23T09:59:54.263Z,94.40
2019-01-23T10:02:22.948Z,93.33
2019-01-23T10:04:50.679Z,99.27
2019-01-23T10:07:18.491Z,98.00
2019-01-23T10:09:46.734Z,91.20
2019-01-23T10:12:14.256Z,100.77
2019-01-23T10:14:42.424Z,93.90
2019-01-23T10:17:29.967Z,86.67
2019-01-23T10:19:58.223Z,89.90
2019-01-23T10:22:26.400Z,90.27
2019-01-23T10:24:54.692Z,90.00
2019-01-23T10:27:22.530Z,93.17
2019-01-23T10:29:50.578Z,86.17
2019-01-23T10:32:18.519Z,81.17
2019-01-23T10:34:46.423Z,80.20
2019-01-23T10:37:19.538Z,82.97
2019-01-23T10:39:43.743Z,87.97
2019-01-23T10:42:11.369Z,76.63
2019-01-23T10:44:39.312Z,79.57
2019-01-23T10:47:06.934Z,81.50
2019-01-23T10:49:35.038Z,76.80
2019-01-23T10:52:02.911Z,79.60
2019-01-23T10:54:31.187Z,76.43
2019-01-23T10:56:58.685Z,67.20
2019-01-23T10:59:26.724Z,73.27
2019-01-23T11:01:54.314Z,66.00
2019-01-23T11:04:22.177Z,70.20
2019-01-23T11:06:49.993Z,71.30
2019-01-23T11:09:17.930Z,62.90
2019-01-23T11:11:46.263Z,72.47
2019-01-23T11:14:14.349Z,74.87
2019-01-23T11:16:42.762Z,74.57
2019-01-23T11:19:10.707Z,71.83
2019-01-23T11:21:39.025Z,50.10
2019-01-23T11:24:07.112Z,69.83
2019-01-23T11:26:34.961Z,75.83
2019-01-23T11:29:02.862Z,71.47
2019-01-23T11:31:30.802Z,73.10
2019-01-23T11:33:59.052Z,66.80
2019-01-23T11:36:26.750Z,75.50
2019-01-23T11:38:54.543Z,64.47
2019-01-23T11:41:22.819Z,70.90
2019-01-23T11:43:50.954Z,70.50
2019-01-23T11:46:18.839Z,77.93
2019-01-23T11:48:46.396Z,78.77
2019-01-23T11:51:13.859Z,78.47
2019-01-23T11:53:42.414Z,76.20
2019-01-23T11:56:10.450Z,73.20
2019-01-23T11:58:37.986Z,70.10
2019-01-23T12:01:06.179Z,70.20
2019-01-23T12:03:34.328Z,70.77
2019-01-23T12:06:01.945Z,67.77
2019-01-23T12:08:29.887Z,70.30
2019-01-23T12:10:58.050Z,68.53
2019-01-23T12:16:04.679Z,58.13
2019-01-23T12:18:32.362Z,60.67
2019-01-23T12:21:02.695Z,54.37
2019-01-23T12:23:31.066Z,63.77
2019-01-23T12:25:59.326Z,57.53
2019-01-23T12:28:28.312Z,64.70
2019-01-23T12:30:56.693Z,66.00
2019-01-23T12:33:25.386Z,55.93
2019-01-23T12:35:52.867Z,62.23
2019-01-23T12:38:20.783Z,61.77
2019-01-23T12:40:48.837Z,69.70
2019-01-23T12:43:16.375Z,61.57
2019-01-23T12:45:43.999Z,63.40
2019-01-23T12:48:11.843Z,62.93
2019-01-23T12:50:39.368Z,65.97
2019-01-23T12:53:07.134Z,65.90
2019-01-23T12:55:35.106Z,67.00
2019-01-23T12:58:03.709Z,54.20
2019-01-23T13:00:32.084Z,59.77
2019-01-23T13:03:00.766Z,59.70
2019-01-23T13:05:28.441Z,61.37
2019-01-23T13:07:56.638Z,63.43
2019-01-23T13:10:25.107Z,66.27
2019-01-23T13:12:53.718Z,67.30
2019-01-23T13:15:23.121Z,71.03
2019-01-23T13:17:50.733Z,72.13
2019-01-23T13:20:19.270Z,68.27
2019-01-23T13:22:47.206Z,72.20
2019-01-23T13:25:17.929Z,70.33
2019-01-23T13:27:45.450Z,68.77
2019-01-23T13:30:18.389Z,64.80
2019-01-23T13:32:46.176Z,68.17
2019-01-23T13:35:15.559Z,73.00
2019-01-23T13:37:43.104Z,62.47
2019-01-23T13:40:17.890Z,74.40
2019-01-23T13:42:45.760Z,69.13
2019-01-23T13:45:13.718Z,63.80
2019-01-23T13:47:41.296Z,67.97
2019-01-23T13:50:09.468Z,72.40
2019-01-23T13:52:37.187Z,63.43
2019-01-23T13:55:06.958Z,71.20
2019-01-23T13:57:34.465Z,71.60
2019-01-23T14:00:02.110Z,63.53
2019-01-23T14:02:30.470Z,71.53
2019-01-23T14:04:57.903Z,70.43
2019-01-23T14:07:25.474Z,71.23
2019-01-23T14:09:53.341Z,64.80
2019-01-23T14:12:21.195Z,67.83
2019-01-23T14:14:49.084Z,61.73
2019-01-23T14:17:17.402Z,68.00
2019-01-23T14:19:44.942Z,67.87
2019-01-23T14:22:12.422Z,64.77
2019-01-23T14:24:41.024Z,65.63
2019-01-23T14:27:08.881Z,66.50
2019-01-23T14:29:36.662Z,60.13
2019-01-23T14:32:04.476Z,61.13
2019-01-23T14:34:32.575Z,62.00
2019-01-23T14:37:00.173Z,70.87
2019-01-23T14:39:28.496Z,55.03
2019-01-23T14:41:56.806Z,66.07
2019-01-23T14:44:26.634Z,62.20
2019-01-23T14:46:54.514Z,60.50
2019-01-23T14:49:22.116Z,64.50
2019-01-23T14:51:49.714Z,58.67
2019-01-23T14:54:18.978Z,64.03
2019-01-23T14:56:46.708Z,66.90
2019-01-23T14:59:14.370Z,57.47
2019-01-23T15:01:42.303Z,65.27
2019-01-23T15:04:12.618Z,67.47
2019-01-23T15:06:59.720Z,72.03
2019-01-23T15:09:30.455Z,68.43
2019-01-23T15:11:58.001Z,60.40
2019-01-23T15:14:25.755Z,66.00
2019-01-23T15:16:55.555Z,60.87
2019-01-23T15:19:23.355Z,71.43
2019-01-23T15:21:51.606Z,66.13
2019-01-23T15:24:19.489Z,76.27
2019-01-23T15:26:47.318Z,67.37
2019-01-23T15:29:15.302Z,68.40
2019-01-23T15:31:43.478Z,68.63
2019-01-23T15:34:11.840Z,69.43
2019-01-23T15:36:39.664Z,75.00
2019-01-23T15:39:08.860Z,68.37
2019-01-23T15:41:37.231Z,70.30
2019-01-23T15:44:07.143Z,68.40
2019-01-23T15:46:35.525Z,71.63
2019-01-23T15:49:03.339Z,67.80
2019-01-23T15:51:34.482Z,76.97
2019-01-23T15:54:02.012Z,57.30
2019-01-23T15:56:31.036Z,71.60
2019-01-23T15:58:58.497Z,74.07
2019-01-23T16:01:26.968Z,72.43
2019-01-23T16:03:55.499Z,75.90
2019-01-23T16:06:23.039Z,73.97
2019-01-23T16:08:51.122Z,68.53
2019-01-23T16:11:20.960Z,63.43
2019-01-23T16:13:49.171Z,83.03
2019-01-23T16:16:16.996Z,78.73
2019-01-23T16:18:44.993Z,74.03
2019-01-23T16:21:14.086Z,78.90
2019-01-23T16:23:41.896Z,80.70
2019-01-23T16:26:09.849Z,76.83
2019-01-23T16:28:38.492Z,90.47
2019-01-23T16:31:06.398Z,90.70
2019-01-23T16:33:34.978Z,77.70
2019-01-23T16:36:02.827Z,77.83
2019-01-23T16:38:31.199Z,89.80
2019-01-23T16:41:00.028Z,94.10
2019-01-23T16:43:27.690Z,82.20
2019-01-23T16:45:55.755Z,94.27
2019-01-23T16:48:23.824Z,95.57
2019-01-23T16:50:51.407Z,92.83
2019-01-23T16:53:19.664Z,90.00
2019-01-23T16:55:47.356Z,104.17
2019-01-23T16:58:16.129Z,92.67
2019-01-23T17:00:43.883Z,88.90
2019-01-23T17:03:12.173Z,95.00
2019-01-23T17:05:41.588Z,89.63
2019-01-23T17:08:10.080Z,96.40
2019-01-23T17:10:41.127Z,85.93
2019-01-23T17:13:11.877Z,97.43
2019-01-23T17:15:40.324Z,96.13
2019-01-23T17:18:08.170Z,93.97
2019-01-23T17:20:44.971Z,94.23
2019-01-23T17:23:12.857Z,92.53
2019-01-23T17:25:41.769Z,84.90
2019-01-23T17:28:11.070Z,87.97
2019-01-23T17:30:39.010Z,85.80
2019-01-23T17:33:07.163Z,88.10
2019-01-23T17:35:34.862Z,85.80
2019-01-23T17:38:03.026Z,95.47
2019-01-23T17:40:30.555Z,94.93
2019-01-23T17:42:59.431Z,84.13
2019-01-23T17:45:29.516Z,83.23
2019-01-23T17:47:57.710Z,97.93
2019-01-23T17:50:25.810Z,91.03
2019-01-23T17:52:54.088Z,97.50
2019-01-23T17:55:24.640Z,97.27
2019-01-23T17:57:52.719Z,91.70
2019-01-23T18:00:23.715Z,84.63
2019-01-23T18:02:52.823Z,96.67
2019-01-23T18:05:21.579Z,87.47
2019-01-23T18:07:49.153Z,100.80
2019-01-23T18:10:17.743Z,89.63
2019-01-23T18:12:46.125Z,78.47
2019-01-23T18:15:16.179Z,87.80
2019-01-23T18:17:44.167Z,85.50
2019-01-23T18:20:16.260Z,90.20
2019-01-23T18:22:45.680Z,90.77
2019-01-23T18:25:16.329Z,92.77
2019-01-23T18:27:45.861Z,95.23
2019-01-23T18:30:17.940Z,89.20
2019-01-23T18:32:46.203Z,94.97
2019-01-23T18:35:58.660Z,86.87
2019-01-23T18:38:43.437Z,93.83
2019-01-23T18:41:37.991Z,98.07
2019-01-23T18:44:28.627Z,92.47
2019-01-23T18:47:22.273Z,94.80
2019-01-23T18:50:42.991Z,96.50
2019-01-23T18:53:10.921Z,90.97
2019-01-23T18:55:38.589Z,95.20
2019-01-23T18:58:06.458Z,91.13
2019-01-23T19:00:34.443Z,93.10
2019-01-23T19:03:08.788Z,96.50
2019-01-23T19:05:36.323Z,100.63
2019-01-23T19:08:06.469Z,98.93
2019-01-23T19:10:34.810Z,87.67
2019-01-23T19:13:03.787Z,86.00
2019-01-23T19:15:31.627Z,87.63
2019-01-23T19:17:59.278Z,88.50
2019-01-23T19:20:26.684Z,92.53
2019-01-23T19:22:54.910Z,89.90
2019-01-23T19:25:23.158Z,85.43
2019-01-23T19:27:51.715Z,90.33
2019-01-23T19:30:20.459Z,83.17
2019-01-23T19:32:50.500Z,83.97
2019-01-23T19:35:18.431Z,85.70
2019-01-23T19:37:46.418Z,80.80
2019-01-23T19:40:14.233Z,82.47
2019-01-23T19:42:41.821Z,110.87
2019-01-23T19:45:13.857Z,97.50
2019-01-23T19:47:41.948Z,92.40
2019-01-23T19:50:11.275Z,84.30
2019-01-23T19:52:38.852Z,87.53
2019-01-23T19:55:08.094Z,82.73
2019-01-23T19:57:36.222Z,80.37
2019-01-23T20:00:07.732Z,87.93
2019-01-23T20:02:36.216Z,78.27
2019-01-23T20:05:05.318Z,86.23
2019-01-23T20:07:33.250Z,87.93
2019-01-23T20:10:01.379Z,88.43
2019-01-23T20:12:29.228Z,88.30
2019-01-23T20:14:57.338Z,85.17
2019-01-23T20:17:25.279Z,85.57
2019-01-23T20:19:53.471Z,82.73
2019-01-23T20:22:22.157Z,89.53
2019-01-23T20:24:50.030Z,86.00
2019-01-23T20:27:18.287Z,85.17
2019-01-23T20:29:46.625Z,95.43
2019-01-23T20:32:16.572Z,85.27
2019-01-23T20:34:44.072Z,93.70
2019-01-23T20:37:11.707Z,88.63
2019-01-23T20:39:40.490Z,96.93
2019-01-23T20:42:08.332Z,90.00
2019-01-23T20:44:36.619Z,86.70
2019-01-23T20:47:04.711Z,95.27
2019-01-23T20:49:32.278Z,88.30
2019-01-23T20:51:59.960Z,94.37
2019-01-23T20:54:27.694Z,96.53
2019-01-23T20:56:55.547Z,91.37
2019-01-23T20:59:43.243Z,99.43
2019-01-23T21:02:11.228Z,86.03
2019-01-23T21:04:39.289Z,83.57
2019-01-23T21:07:07.067Z,90.13
2019-01-23T21:09:34.567Z,90.20
2019-01-23T21:12:02.177Z,85.50
2019-01-23T21:14:30.401Z,85.47
2019-01-23T21:16:58.274Z,95.43
2019-01-23T21:19:26.228Z,94.53
2019-01-23T21:21:54.038Z,85.53
2019-01-23T21:24:25.310Z,88.00
2019-01-23T21:26:52.952Z,94.57
2019-01-23T21:29:20.905Z,99.43
2019-01-23T21:31:49.054Z,91.00
2019-01-23T21:34:16.940Z,87.87
2019-01-23T21:36:45.323Z,98.00
2019-01-23T21:39:14.942Z,77.93
2019-01-23T21:41:42.713Z,90.23
2019-01-23T21:44:10.234Z,91.70
2019-01-23T21:46:37.875Z,99.93
2019-01-23T21:49:05.498Z,87.07
2019-01-23T21:51:33.436Z,84.83
2019-01-23T21:54:01.533Z,95.03
2019-01-23T21:56:29.405Z,90.40
2019-01-23T21:58:57.327Z,95.57
2019-01-23T22:01:25.161Z,98.93
2019-01-23T22:03:54.743Z,85.77
2019-01-23T22:06:22.614Z,91.17
2019-01-23T22:08:50.501Z,84.47
2019-01-23T22:11:23.439Z,84.97
2019-01-23T22:13:52.151Z,83.17
2019-01-23T22:16:19.862Z,99.63
2019-01-23T22:18:49.438Z,89.60
2019-01-23T22:21:18.358Z,93.27
2019-01-23T22:23:46.444Z,86.30
2019-01-23T22:26:14.085Z,89.17
2019-01-23T22:28:41.955Z,91.80
2019-01-23T22:31:09.730Z,83.33
2019-01-23T22:33:37.617Z,92.83
2019-01-23T22:36:05.097Z,86.20
2019-01-23T22:38:34.046Z,79.00
2019-01-23T22:41:14.174Z,88.67
2019-01-23T22:43:44.876Z,89.17
2019-01-23T22:46:13.030Z,83.97
2019-01-23T22:48:40.551Z,90.67
2019-01-23T22:51:08.474Z,83.27
2019-01-23T22:53:36.362Z,95.63
2019-01-23T22:56:04.679Z,94.10
2019-01-23T22:58:33.239Z,93.63
2019-01-23T23:01:27.230Z,87.57
2019-01-23T23:04:03.815Z,88.00
2019-01-23T23:06:31.705Z,92.27
2019-01-23T23:09:01.114Z,99.87
2019-01-23T23:11:34.940Z,87.93
2019-01-23T23:14:08.321Z,97.13
2019-01-23T23:16:36.840Z,96.17
2019-01-23T23:19:04.451Z,89.23
2019-01-23T23:21:32.859Z,99.00
2019-01-23T23:24:01.015Z,91.17
2019-01-23T23:26:28.969Z,89.50
2019-01-23T23:28:56.797Z,92.50
2019-01-23T23:31:25.156Z,84.40
2019-01-23T23:33:52.971Z,82.90
2019-01-23T23:36:20.905Z,104.13
2019-01-23T23:38:48.680Z,93.27
2019-01-23T23:41:16.479Z,91.53
2019-01-23T23:43:46.447Z,87.13
2019-01-23T23:46:13.965Z,96.33
2019-01-23T23:48:41.425Z,85.73
2019-01-23T23:51:10.666Z,94.03
2019-01-23T23:53:38.482Z,87.43
2019-01-23T23:56:06.960Z,91.83
2019-01-23T23:58:38.553Z,92.40
